createdAt,value
2023-05-09T00:00:50.045Z,21.4095
2023-05-09T00:01:51.157Z,21.4301
2023-05-09T00:02:52.265Z,21.4693
2023-05-09T00:03:53.400Z,21.4850
2023-05-09T00:04:54.459Z,21.4886
2023-05-09T00:05:55.610Z,21.5027
2023-05-09T00:06:56.620Z,21.5164
2023-05-09T00:07:57.712Z,21.5123
2023-05-09T00:08:58.816Z,21.5017
2023-05-09T00:09:59.897Z,21.4837
2023-05-09T00:11:00.999Z,21.4595
2023-05-09T00:12:02.096Z,21.4633
2023-05-09T00:13:03.208Z,21.4807
2023-05-09T00:14:04.276Z,21.4951
2023-05-09T00:15:05.422Z,21.5095
2023-05-09T00:16:06.474Z,21.4953
2023-05-09T00:17:07.537Z,21.4831
2023-05-09T00:18:08.626Z,21.4745
2023-05-09T00:19:09.736Z,21.4718
2023-05-09T00:20:10.842Z,21.4739
2023-05-09T00:21:11.998Z,21.4873
2023-05-09T00:22:12.998Z,21.5145
2023-05-09T00:23:14.101Z,21.5192
2023-05-09T00:24:15.196Z,21.5252
2023-05-09T00:25:16.508Z,21.5340
2023-05-09T00:26:17.389Z,21.5192
2023-05-09T00:27:18.494Z,21.5209
2023-05-09T00:28:19.573Z,21.4946
2023-05-09T00:29:20.671Z,21.4612
2023-05-09T00:30:21.750Z,21.4614
2023-05-09T00:31:22.862Z,21.4868
2023-05-09T00:32:23.951Z,21.4997
2023-05-09T00:33:25.065Z,21.5029
2023-05-09T00:34:26.146Z,21.5056
2023-05-09T00:35:27.243Z,21.4821
2023-05-09T00:36:28.420Z,21.4715
2023-05-09T00:37:29.434Z,21.4834
2023-05-09T00:38:30.544Z,21.4740
2023-05-09T00:39:31.622Z,21.4616
2023-05-09T00:40:32.732Z,21.4469
2023-05-09T00:41:33.807Z,21.4141
2023-05-09T00:42:34.901Z,21.3971
2023-05-09T00:43:35.982Z,21.4062
2023-05-09T00:44:37.086Z,21.4195
2023-05-09T00:45:38.198Z,21.4258
2023-05-09T00:46:39.273Z,21.4221
2023-05-09T00:47:40.383Z,21.4395
2023-05-09T00:48:41.458Z,21.4414
2023-05-09T00:49:42.563Z,21.4541
2023-05-09T00:50:43.671Z,21.4700
2023-05-09T00:51:44.827Z,21.4607
2023-05-09T00:52:45.819Z,21.4453
2023-05-09T00:53:46.908Z,21.4527
2023-05-09T00:54:48.038Z,21.4692
2023-05-09T00:55:49.109Z,21.4601
2023-05-09T00:56:50.212Z,21.4522
2023-05-09T00:57:51.309Z,21.4396
2023-05-09T00:58:52.398Z,21.4253
2023-05-09T00:59:53.506Z,21.4277
2023-05-09T01:00:54.603Z,21.4449
2023-05-09T01:01:55.689Z,21.4605
2023-05-09T01:02:56.935Z,21.4311
2023-05-09T01:03:57.886Z,21.4193
2023-05-09T01:04:58.992Z,21.4147
2023-05-09T01:06:00.105Z,21.4214
2023-05-09T01:07:01.281Z,21.4331
2023-05-09T01:08:02.280Z,21.4431
2023-05-09T01:09:03.373Z,21.4353
2023-05-09T01:10:04.453Z,21.4196
2023-05-09T01:11:05.617Z,21.4282
2023-05-09T01:12:06.654Z,21.4233
2023-05-09T01:13:07.759Z,21.4281
2023-05-09T01:14:08.856Z,21.4537
2023-05-09T01:15:09.948Z,21.4563
2023-05-09T01:16:11.078Z,21.4602
2023-05-09T01:17:12.108Z,21.4702
2023-05-09T01:18:13.245Z,21.4823
2023-05-09T01:19:14.309Z,21.4629
2023-05-09T01:20:15.405Z,21.4178
2023-05-09T01:21:16.509Z,21.4116
2023-05-09T01:22:17.709Z,21.4085
2023-05-09T01:23:18.693Z,21.4149
2023-05-09T01:24:19.772Z,21.4333
2023-05-09T01:25:20.886Z,21.4419
2023-05-09T01:26:21.964Z,21.4276
2023-05-09T01:27:23.055Z,21.4162
2023-05-09T01:28:24.148Z,21.4318
2023-05-09T01:29:25.254Z,21.4367
2023-05-09T01:30:26.350Z,21.4438
2023-05-09T01:31:27.450Z,21.4350
2023-05-09T01:32:28.614Z,21.4201
2023-05-09T01:33:29.636Z,21.4120
2023-05-09T01:34:30.739Z,21.4111
2023-05-09T01:35:31.834Z,21.4080
2023-05-09T01:36:33.017Z,21.3730
2023-05-09T01:37:34.089Z,21.3471
2023-05-09T01:38:35.109Z,21.3787
2023-05-09T01:39:36.190Z,21.3703
2023-05-09T01:40:37.286Z,21.3437
2023-05-09T01:41:38.416Z,21.3416
2023-05-09T01:42:39.473Z,21.3558
2023-05-09T01:43:40.653Z,21.3477
2023-05-09T01:44:41.663Z,21.3544
2023-05-09T01:45:42.773Z,21.3615
2023-05-09T01:46:43.888Z,21.3545
2023-05-09T01:47:44.991Z,21.3782
2023-05-09T01:48:46.031Z,21.4174
2023-05-09T01:49:47.120Z,21.4367
2023-05-09T01:50:48.208Z,21.4339
2023-05-09T01:51:49.318Z,21.4381
2023-05-09T01:52:50.495Z,21.4599
2023-05-09T01:53:51.493Z,21.4661
2023-05-09T01:54:52.592Z,21.4910
2023-05-09T01:55:53.665Z,21.5131
2023-05-09T01:56:54.796Z,21.4953
2023-05-09T01:57:55.858Z,21.4734
2023-05-09T01:58:56.960Z,21.4849
2023-05-09T01:59:58.041Z,21.4830
2023-05-09T02:00:59.180Z,21.4894
2023-05-09T02:02:00.361Z,21.5102
2023-05-09T02:03:01.427Z,21.5026
2023-05-09T02:04:02.427Z,21.4879
2023-05-09T02:05:03.568Z,21.4560
2023-05-09T02:06:04.611Z,21.4444
2023-05-09T02:07:05.742Z,21.4291
2023-05-09T02:08:06.907Z,21.4241
2023-05-09T02:09:07.884Z,21.4212
2023-05-09T02:10:08.977Z,21.3890
2023-05-09T02:11:17.612Z,21.4016
2023-05-09T02:12:11.179Z,21.4165
2023-05-09T02:13:12.278Z,21.4291
2023-05-09T02:14:13.355Z,21.4434
2023-05-09T02:15:14.648Z,21.4749
2023-05-09T02:16:15.593Z,21.4900
2023-05-09T02:17:16.624Z,21.4625
2023-05-09T02:18:17.719Z,21.4320
2023-05-09T02:19:18.806Z,21.4425
2023-05-09T02:20:19.891Z,21.4542
2023-05-09T02:21:20.985Z,21.4564
2023-05-09T02:22:22.105Z,21.4697
2023-05-09T02:23:23.267Z,21.5030
2023-05-09T02:24:24.340Z,21.5126
2023-05-09T02:25:25.417Z,21.4832
2023-05-09T02:26:26.515Z,21.4437
2023-05-09T02:27:27.625Z,21.4331
2023-05-09T02:28:28.686Z,21.4073
2023-05-09T02:29:29.788Z,21.3999
2023-05-09T02:30:30.874Z,21.4016
2023-05-09T02:31:32.009Z,21.4264
2023-05-09T02:32:33.097Z,21.4295
2023-05-09T02:33:34.131Z,21.4349
2023-05-09T02:34:35.223Z,21.4634
2023-05-09T02:35:36.307Z,21.4747
2023-05-09T02:36:37.437Z,21.4639
2023-05-09T02:37:38.499Z,21.4549
2023-05-09T02:38:39.641Z,21.4329
2023-05-09T02:39:40.650Z,21.4109
2023-05-09T02:40:41.744Z,21.4009
2023-05-09T02:41:42.814Z,21.3754
2023-05-09T02:42:43.911Z,21.3687
2023-05-09T02:43:44.991Z,21.3882
2023-05-09T02:44:46.089Z,21.4042
2023-05-09T02:45:47.249Z,21.3931
2023-05-09T02:46:48.265Z,21.3962
2023-05-09T02:47:49.416Z,21.3787
2023-05-09T02:48:50.460Z,21.3617
2023-05-09T02:49:51.556Z,21.3720
2023-05-09T02:50:52.689Z,21.3881
2023-05-09T02:51:53.741Z,21.4219
2023-05-09T02:52:54.819Z,21.4439
2023-05-09T02:53:55.984Z,21.4310
2023-05-09T02:54:57.018Z,21.4103
2023-05-09T02:55:58.112Z,21.4354
2023-05-09T02:56:59.213Z,21.4706
2023-05-09T02:58:12.562Z,21.4800
2023-05-09T02:59:02.370Z,21.4841
2023-05-09T03:00:02.489Z,21.4854
2023-05-09T03:01:03.609Z,21.4769
2023-05-09T03:02:04.664Z,21.4632
2023-05-09T03:03:05.877Z,21.4506
2023-05-09T03:04:06.840Z,21.4527
2023-05-09T03:05:07.947Z,21.4266
2023-05-09T03:06:09.022Z,21.3731
2023-05-09T03:07:10.117Z,21.3498
2023-05-09T03:08:11.256Z,21.3343
2023-05-09T03:09:12.383Z,21.3539
2023-05-09T03:10:13.430Z,21.3713
2023-05-09T03:11:14.481Z,21.3861
2023-05-09T03:12:15.598Z,21.3748
2023-05-09T03:13:16.712Z,21.3753
2023-05-09T03:14:17.784Z,21.3804
2023-05-09T03:15:18.874Z,21.3868
2023-05-09T03:16:20.047Z,21.3636
2023-05-09T03:17:21.129Z,21.3671
2023-05-09T03:18:22.157Z,21.3983
2023-05-09T03:19:23.253Z,21.4165
2023-05-09T03:20:24.345Z,21.4108
2023-05-09T03:21:25.425Z,21.3773
2023-05-09T03:22:26.536Z,21.3429
2023-05-09T03:23:27.607Z,21.3349
2023-05-09T03:24:28.802Z,21.3678
2023-05-09T03:25:29.806Z,21.3990
2023-05-09T03:26:30.887Z,21.4186
2023-05-09T03:27:31.986Z,21.4134
2023-05-09T03:28:33.094Z,21.4139
2023-05-09T03:29:34.161Z,21.4335
2023-05-09T03:30:35.270Z,21.4282
2023-05-09T03:31:36.419Z,21.4317
2023-05-09T03:32:37.491Z,21.4375
2023-05-09T03:33:38.565Z,21.4492
2023-05-09T03:34:39.622Z,21.4473
2023-05-09T03:35:40.755Z,21.4152
2023-05-09T03:36:41.806Z,21.4240
2023-05-09T03:37:42.902Z,21.4464
2023-05-09T03:38:44.047Z,21.4474
2023-05-09T03:39:45.180Z,21.4404
2023-05-09T03:40:46.195Z,21.3936
2023-05-09T03:41:47.266Z,21.3409
2023-05-09T03:42:48.398Z,21.2971
2023-05-09T03:43:49.502Z,21.2938
2023-05-09T03:44:50.550Z,21.3091
2023-05-09T03:45:51.643Z,21.2876
2023-05-09T03:46:52.850Z,21.3025
2023-05-09T03:47:53.868Z,21.3001
2023-05-09T03:48:54.968Z,21.3001
2023-05-09T03:49:56.039Z,21.2616
2023-05-09T03:50:57.130Z,21.2697
2023-05-09T03:51:58.210Z,21.2572
2023-05-09T03:52:59.315Z,21.2234
2023-05-09T03:54:00.408Z,21.2158
2023-05-09T03:55:01.595Z,21.2284
2023-05-09T03:56:02.591Z,21.2624
2023-05-09T03:57:03.668Z,21.2947
2023-05-09T03:58:04.783Z,21.3125
2023-05-09T03:59:05.887Z,21.3103
2023-05-09T04:00:06.995Z,21.2920
2023-05-09T04:01:08.060Z,21.2890
2023-05-09T04:02:09.190Z,21.3044
2023-05-09T04:03:10.464Z,21.2660
2023-05-09T04:04:11.411Z,21.2598
2023-05-09T04:05:12.673Z,21.2816
2023-05-09T04:06:13.513Z,21.3133
2023-05-09T04:07:14.614Z,21.3151
2023-05-09T04:08:15.722Z,21.3099
2023-05-09T04:09:16.817Z,21.3414
2023-05-09T04:10:18.015Z,21.3809
2023-05-09T04:11:18.985Z,21.4061
2023-05-09T04:12:20.086Z,21.4217
2023-05-09T04:13:21.242Z,21.4531
2023-05-09T04:14:22.297Z,21.4288
2023-05-09T04:15:23.384Z,21.3606
2023-05-09T04:16:24.501Z,21.3647
2023-05-09T04:17:25.632Z,21.3817
2023-05-09T04:18:26.661Z,21.3365
2023-05-09T04:19:27.793Z,21.3395
2023-05-09T04:20:28.839Z,21.3530
2023-05-09T04:21:29.920Z,21.3472
2023-05-09T04:22:31.048Z,21.3470
2023-05-09T04:23:32.121Z,21.3424
2023-05-09T04:24:33.219Z,21.3341
2023-05-09T04:25:34.402Z,21.3312
2023-05-09T04:26:35.386Z,21.3036
2023-05-09T04:27:36.481Z,21.2889
2023-05-09T04:28:37.568Z,21.2691
2023-05-09T04:29:38.708Z,21.2721
2023-05-09T04:30:39.779Z,21.2593
2023-05-09T04:31:40.909Z,21.2984
2023-05-09T04:32:41.990Z,21.2966
2023-05-09T04:33:43.063Z,21.3225
2023-05-09T04:34:44.169Z,21.3068
2023-05-09T04:35:45.217Z,21.3346
2023-05-09T04:36:46.308Z,21.3398
2023-05-09T04:37:47.411Z,21.3461
2023-05-09T04:38:48.512Z,21.3646
2023-05-09T04:39:49.622Z,21.4022
2023-05-09T04:40:50.781Z,21.4471
2023-05-09T04:41:51.785Z,21.4568
2023-05-09T04:42:52.869Z,21.4384
2023-05-09T04:43:53.957Z,21.3736
2023-05-09T04:44:55.073Z,21.3520
2023-05-09T04:45:56.187Z,21.3212
2023-05-09T04:46:57.239Z,21.3295
2023-05-09T04:47:58.475Z,21.3255
2023-05-09T04:48:59.459Z,21.2931
2023-05-09T04:50:00.537Z,21.2685
2023-05-09T04:51:01.619Z,21.2712
2023-05-09T04:52:02.754Z,21.2386
2023-05-09T04:53:03.808Z,21.2752
2023-05-09T04:54:04.911Z,21.2949
2023-05-09T04:55:06.010Z,21.3086
2023-05-09T04:56:07.197Z,21.3268
2023-05-09T04:57:17.455Z,21.3428
2023-05-09T04:58:10.267Z,21.3542
2023-05-09T04:59:10.400Z,21.3706
2023-05-09T05:00:11.516Z,21.3662
2023-05-09T05:01:12.617Z,21.2828
2023-05-09T05:02:13.667Z,21.2800
2023-05-09T05:03:14.750Z,21.3110
2023-05-09T05:04:15.895Z,21.3303
2023-05-09T05:05:17.109Z,21.2921
2023-05-09T05:06:18.075Z,21.2817
2023-05-09T05:07:19.141Z,21.2725
2023-05-09T05:08:20.262Z,21.2734
2023-05-09T05:09:21.345Z,21.2652
2023-05-09T05:10:22.471Z,21.2506
2023-05-09T05:11:23.611Z,21.2437
2023-05-09T05:12:24.624Z,21.2478
2023-05-09T05:13:25.814Z,21.2726
2023-05-09T05:14:26.813Z,21.3071
2023-05-09T05:15:27.917Z,21.3525
2023-05-09T05:16:29.092Z,21.3436
2023-05-09T05:17:30.116Z,21.3036
2023-05-09T05:18:31.188Z,21.3031
2023-05-09T05:19:32.298Z,21.3442
2023-05-09T05:20:33.423Z,21.3882
2023-05-09T05:21:34.473Z,21.4076
2023-05-09T05:22:35.587Z,21.4266
2023-05-09T05:23:36.667Z,21.3991
2023-05-09T05:24:37.786Z,21.4468
2023-05-09T05:25:38.883Z,21.4427
2023-05-09T05:26:40.052Z,21.4246
2023-05-09T05:27:41.105Z,21.4335
2023-05-09T05:28:42.149Z,21.4658
2023-05-09T05:29:43.256Z,21.4513
2023-05-09T05:30:44.363Z,21.4394
2023-05-09T05:31:45.443Z,21.4245
2023-05-09T05:32:46.547Z,21.4349
2023-05-09T05:33:47.621Z,21.4138
2023-05-09T05:34:48.729Z,21.4438
2023-05-09T05:35:49.829Z,21.4589
2023-05-09T05:36:50.899Z,21.4033
2023-05-09T05:37:52.001Z,21.3841
2023-05-09T05:38:53.107Z,21.4242
2023-05-09T05:39:54.213Z,21.4821
2023-05-09T05:40:55.322Z,21.4227
2023-05-09T05:41:56.496Z,21.3755
2023-05-09T05:42:57.503Z,21.4121
2023-05-09T05:43:58.583Z,21.4537
2023-05-09T05:44:59.685Z,21.4554
2023-05-09T05:46:00.838Z,21.4122
2023-05-09T05:47:01.864Z,21.3901
2023-05-09T05:48:03.032Z,21.3645
2023-05-09T05:49:04.068Z,21.3143
2023-05-09T05:50:05.161Z,21.2818
2023-05-09T05:51:06.261Z,21.3074
2023-05-09T05:52:07.356Z,21.3675
2023-05-09T05:53:08.446Z,21.4032
2023-05-09T05:54:09.542Z,21.3760
2023-05-09T05:55:10.652Z,21.3640
2023-05-09T05:56:11.784Z,21.3439
2023-05-09T05:57:12.864Z,21.3563
2023-05-09T05:58:13.958Z,21.3840
2023-05-09T05:59:15.026Z,21.4343
2023-05-09T06:00:16.117Z,21.4806
2023-05-09T06:01:17.223Z,21.4210
2023-05-09T06:02:18.436Z,21.4364
2023-05-09T06:03:19.499Z,21.4587
2023-05-09T06:04:20.614Z,21.4460
2023-05-09T06:05:21.602Z,21.4870
2023-05-09T06:06:22.708Z,21.4987
2023-05-09T06:07:23.790Z,21.5052
2023-05-09T06:08:24.895Z,21.4397
2023-05-09T06:09:25.992Z,21.4153
2023-05-09T06:10:27.099Z,21.3933
2023-05-09T06:11:28.208Z,21.4582
2023-05-09T06:12:29.378Z,21.4918
2023-05-09T06:13:30.402Z,21.4935
2023-05-09T06:14:31.478Z,21.4992
2023-05-09T06:15:32.560Z,21.4769
2023-05-09T06:16:33.677Z,21.4623
2023-05-09T06:17:34.785Z,21.4945
2023-05-09T06:18:35.861Z,21.5373
2023-05-09T06:19:36.953Z,21.5104
2023-05-09T06:20:38.048Z,21.5296
2023-05-09T06:21:39.149Z,21.5742
2023-05-09T06:22:40.234Z,21.5490
2023-05-09T06:23:57.000Z,21.5322
2023-05-09T06:24:43.488Z,21.5257
2023-05-09T06:25:43.613Z,21.5481
2023-05-09T06:26:44.666Z,21.5490
2023-05-09T06:27:45.849Z,21.5131
2023-05-09T06:28:46.871Z,21.5337
2023-05-09T06:29:47.976Z,21.5352
2023-05-09T06:30:49.065Z,21.5618
2023-05-09T06:31:50.191Z,21.5726
2023-05-09T06:32:51.284Z,21.5268
2023-05-09T06:33:52.373Z,21.4852
2023-05-09T06:34:53.456Z,21.5071
2023-05-09T06:35:54.532Z,21.5038
2023-05-09T06:36:55.633Z,21.4816
2023-05-09T06:37:56.737Z,21.4684
2023-05-09T06:38:57.821Z,21.4816
2023-05-09T06:39:58.920Z,21.4964
2023-05-09T06:41:00.011Z,21.5205
2023-05-09T06:42:01.146Z,21.5320
2023-05-09T06:43:02.300Z,21.5566
2023-05-09T06:44:03.300Z,21.5736
2023-05-09T06:45:04.425Z,21.5368
2023-05-09T06:46:05.537Z,21.5352
2023-05-09T06:47:06.593Z,21.5284
2023-05-09T06:48:07.787Z,21.5585
2023-05-09T06:49:08.775Z,21.5625
2023-05-09T06:50:09.883Z,21.5858
2023-05-09T06:51:10.988Z,21.6319
2023-05-09T06:52:12.073Z,21.6063
2023-05-09T06:53:13.158Z,21.5688
2023-05-09T06:54:14.257Z,21.5446
2023-05-09T06:55:15.591Z,21.5574
2023-05-09T06:56:18.322Z,21.5363
2023-05-09T06:57:17.541Z,21.5182
2023-05-09T06:58:18.718Z,21.5063
2023-05-09T06:59:19.712Z,21.5148
2023-05-09T07:00:20.826Z,21.5142
2023-05-09T07:01:21.979Z,21.4973
2023-05-09T07:02:23.039Z,21.4968
2023-05-09T07:03:24.091Z,21.4820
2023-05-09T07:04:25.189Z,21.5057
2023-05-09T07:05:26.353Z,21.5748
2023-05-09T07:06:27.369Z,21.6155
2023-05-09T07:07:28.500Z,21.5808
2023-05-09T07:08:29.564Z,21.5328
2023-05-09T07:09:30.667Z,21.5304
2023-05-09T07:10:31.730Z,21.5055
2023-05-09T07:11:32.820Z,21.5357
2023-05-09T07:12:33.946Z,21.5904
2023-05-09T07:13:35.114Z,21.5896
2023-05-09T07:14:36.129Z,21.5961
2023-05-09T07:15:42.266Z,21.5801
2023-05-09T07:16:39.357Z,21.5825
2023-05-09T07:17:39.505Z,21.5696
2023-05-09T07:18:40.509Z,21.5454
2023-05-09T07:19:41.583Z,21.5737
2023-05-09T07:20:42.685Z,21.5296
2023-05-09T07:21:43.795Z,21.5243
2023-05-09T07:22:44.891Z,21.5609
2023-05-09T07:23:46.060Z,21.6029
2023-05-09T07:24:47.076Z,21.6411
2023-05-09T07:25:48.169Z,21.6521
2023-05-09T07:26:49.258Z,21.6703
2023-05-09T07:27:50.388Z,21.7007
2023-05-09T07:28:51.533Z,21.6670
2023-05-09T07:29:52.541Z,21.7127
2023-05-09T07:30:53.655Z,21.7304
2023-05-09T07:31:54.788Z,21.7466
2023-05-09T07:32:55.885Z,21.7497
2023-05-09T07:33:56.925Z,21.7666
2023-05-09T07:34:58.035Z,21.7848
2023-05-09T07:35:59.162Z,21.7853
2023-05-09T07:37:00.218Z,21.6792
2023-05-09T07:38:01.337Z,21.6800
2023-05-09T07:39:02.394Z,21.6197
2023-05-09T07:40:03.500Z,21.6468
2023-05-09T07:41:04.611Z,21.6544
2023-05-09T07:42:05.701Z,21.7318
2023-05-09T07:43:06.790Z,21.7580
2023-05-09T07:44:08.023Z,21.7677
2023-05-09T07:45:08.980Z,21.7937
2023-05-09T07:46:10.125Z,21.8111
2023-05-09T07:47:11.160Z,21.8334
2023-05-09T07:48:12.334Z,21.8584
2023-05-09T07:49:13.358Z,21.8473
2023-05-09T07:50:14.448Z,21.8560
2023-05-09T07:51:15.547Z,21.8428
2023-05-09T07:52:16.618Z,21.8027
2023-05-09T07:53:17.791Z,21.8200
2023-05-09T07:54:18.828Z,21.8497
2023-05-09T07:55:19.917Z,21.8483
2023-05-09T07:56:21.014Z,21.8173
2023-05-09T07:57:22.143Z,21.7443
2023-05-09T07:58:23.196Z,21.7207
2023-05-09T07:59:24.367Z,21.7451
2023-05-09T08:00:25.459Z,21.7943
2023-05-09T08:01:26.485Z,21.7918
2023-05-09T08:02:27.625Z,21.7719
2023-05-09T08:03:28.721Z,21.7618
2023-05-09T08:04:29.793Z,21.8092
2023-05-09T08:05:30.877Z,21.8538
2023-05-09T08:06:31.947Z,21.8406
2023-05-09T08:07:33.055Z,21.8246
2023-05-09T08:08:34.175Z,21.7943
2023-05-09T08:09:35.240Z,21.8039
2023-05-09T08:10:36.367Z,21.6991
2023-05-09T08:11:37.433Z,21.7157
2023-05-09T08:12:38.564Z,21.7147
2023-05-09T08:13:39.620Z,21.6863
2023-05-09T08:14:40.810Z,21.6447
2023-05-09T08:15:41.867Z,21.6926
2023-05-09T08:16:42.907Z,21.7472
2023-05-09T08:17:44.060Z,21.7802
2023-05-09T08:18:45.118Z,21.8062
2023-05-09T08:19:46.188Z,21.7964
2023-05-09T08:20:47.283Z,21.8243
2023-05-09T08:21:48.377Z,21.8685
2023-05-09T08:22:49.486Z,21.8764
2023-05-09T08:23:50.568Z,21.8798
2023-05-09T08:24:51.643Z,21.8530
2023-05-09T08:25:52.748Z,21.8476
2023-05-09T08:26:53.849Z,21.8404
2023-05-09T08:27:54.942Z,21.8178
2023-05-09T08:28:56.063Z,21.7001
2023-05-09T08:29:57.223Z,21.6964
2023-05-09T08:30:58.271Z,21.7459
2023-05-09T08:31:59.405Z,21.6690
2023-05-09T08:33:00.445Z,21.6904
2023-05-09T08:34:01.531Z,21.7578
2023-05-09T08:35:02.626Z,21.8030
2023-05-09T08:36:03.711Z,21.7937
2023-05-09T08:37:04.795Z,21.8112
2023-05-09T08:38:05.891Z,21.7670
2023-05-09T08:39:06.984Z,21.7729
2023-05-09T08:40:08.086Z,21.7192
2023-05-09T08:41:09.201Z,21.7139
2023-05-09T08:42:10.287Z,21.7054
2023-05-09T08:43:11.386Z,21.6832
2023-05-09T08:44:12.483Z,21.6790
2023-05-09T08:45:13.558Z,21.6855
2023-05-09T08:46:14.680Z,21.6968
2023-05-09T08:47:15.767Z,21.6862
2023-05-09T08:48:16.865Z,21.6992
2023-05-09T08:49:17.946Z,21.7134
2023-05-09T08:50:19.164Z,21.7923
2023-05-09T08:51:20.149Z,21.8495
2023-05-09T08:52:21.244Z,21.8455
2023-05-09T08:53:22.314Z,21.8073
2023-05-09T08:54:23.447Z,21.7633
2023-05-09T08:55:24.519Z,21.7731
2023-05-09T08:56:25.614Z,21.7757
2023-05-09T08:57:26.693Z,21.7853
2023-05-09T08:58:27.797Z,21.7764
2023-05-09T08:59:28.902Z,21.7549
2023-05-09T09:00:30.080Z,21.7573
2023-05-09T09:01:31.105Z,21.7900
2023-05-09T09:02:32.204Z,21.7326
2023-05-09T09:03:33.280Z,21.7467
2023-05-09T09:04:34.428Z,21.6872
2023-05-09T09:06:36.567Z,21.6383
2023-05-09T09:07:37.662Z,21.7086
2023-05-09T09:08:38.761Z,21.7071
2023-05-09T09:09:39.856Z,21.7568
2023-05-09T09:10:40.925Z,21.7741
2023-05-09T09:11:42.039Z,21.7224
2023-05-09T09:12:43.145Z,21.7476
2023-05-09T09:13:44.202Z,21.8076
2023-05-09T09:14:45.324Z,21.8671
2023-05-09T09:15:46.509Z,21.8975
2023-05-09T09:16:47.530Z,21.8952
2023-05-09T09:17:48.624Z,21.8850
2023-05-09T09:18:49.691Z,21.8957
2023-05-09T09:19:50.838Z,21.9127
2023-05-09T09:20:51.866Z,21.9031
2023-05-09T09:21:52.973Z,21.9020
2023-05-09T09:22:54.095Z,21.9248
2023-05-09T09:23:55.174Z,21.9179
2023-05-09T09:24:56.259Z,21.8303
2023-05-09T09:25:59.539Z,21.8215
2023-05-09T09:26:58.449Z,21.8573
2023-05-09T09:27:59.579Z,21.8690
2023-05-09T09:29:00.640Z,21.9046
2023-05-09T09:30:01.770Z,21.9028
2023-05-09T09:31:02.915Z,21.8566
2023-05-09T09:32:03.949Z,21.8078
2023-05-09T09:33:05.117Z,21.7725
2023-05-09T09:34:06.936Z,21.7182
2023-05-09T09:35:07.238Z,21.6882
2023-05-09T09:36:08.295Z,21.7533
2023-05-09T09:37:09.395Z,21.7727
2023-05-09T09:38:10.497Z,21.8013
2023-05-09T09:39:11.590Z,21.8717
2023-05-09T09:40:12.913Z,21.9077
2023-05-09T09:41:13.782Z,21.8409
2023-05-09T09:42:14.894Z,21.8377
2023-05-09T09:43:15.969Z,21.8799
2023-05-09T09:44:17.081Z,21.8704
2023-05-09T09:45:18.186Z,21.8581
2023-05-09T09:46:19.361Z,21.8927
2023-05-09T09:47:20.352Z,21.9070
2023-05-09T09:48:21.445Z,21.9278
2023-05-09T09:49:22.523Z,21.9493
2023-05-09T09:50:23.648Z,21.9581
2023-05-09T09:51:24.712Z,21.9730
2023-05-09T09:52:25.835Z,21.9828
2023-05-09T09:53:26.919Z,21.9505
2023-05-09T09:54:28.037Z,21.9629
2023-05-09T09:55:29.107Z,21.9534
2023-05-09T09:56:30.190Z,21.9483
2023-05-09T09:57:31.348Z,21.9352
2023-05-09T09:58:32.399Z,21.9374
2023-05-09T09:59:33.495Z,21.8842
2023-05-09T10:00:34.566Z,21.8836
2023-05-09T10:01:35.805Z,21.8805
2023-05-09T10:02:36.789Z,21.8689
2023-05-09T10:03:37.889Z,21.8994
2023-05-09T10:04:39.053Z,21.9089
2023-05-09T10:05:40.039Z,21.9665
2023-05-09T10:06:41.121Z,22.0088
2023-05-09T10:07:42.214Z,22.0321
2023-05-09T10:08:43.293Z,21.9651
2023-05-09T10:09:44.380Z,21.9025
2023-05-09T10:10:45.515Z,21.8329
2023-05-09T10:11:46.568Z,21.8065
2023-05-09T10:12:47.719Z,21.7940
2023-05-09T10:13:48.763Z,21.7981
2023-05-09T10:14:49.856Z,21.8315
2023-05-09T10:15:53.879Z,21.8891
2023-05-09T10:16:52.204Z,21.8979
2023-05-09T10:17:53.271Z,21.9029
2023-05-09T10:18:54.308Z,21.9236
2023-05-09T10:19:55.318Z,21.9660
2023-05-09T10:20:56.482Z,21.9874
2023-05-09T10:21:57.498Z,22.0168
2023-05-09T10:22:58.581Z,22.0054
2023-05-09T10:23:59.684Z,21.9886
2023-05-09T10:25:00.836Z,22.0120
2023-05-09T10:26:01.957Z,21.9934
2023-05-09T10:27:03.035Z,21.9472
2023-05-09T10:28:04.139Z,21.9152
2023-05-09T10:29:05.208Z,21.8806
2023-05-09T10:30:06.322Z,21.8612
2023-05-09T10:31:08.872Z,21.8259
2023-05-09T10:32:08.589Z,21.7966
2023-05-09T10:33:09.639Z,21.7857
2023-05-09T10:34:10.696Z,21.8077
2023-05-09T10:35:11.825Z,21.8303
2023-05-09T10:36:12.920Z,21.8993
2023-05-09T10:37:13.976Z,21.9019
2023-05-09T10:38:15.072Z,21.8483
2023-05-09T10:39:16.168Z,21.8691
2023-05-09T10:40:17.274Z,21.9021
2023-05-09T10:41:18.356Z,21.9233
2023-05-09T10:42:19.467Z,21.9646
2023-05-09T10:43:20.538Z,21.9881
2023-05-09T10:44:21.624Z,22.0326
2023-05-09T10:45:22.765Z,22.0082
2023-05-09T10:46:23.905Z,22.0185
2023-05-09T10:47:25.035Z,22.0444
2023-05-09T10:48:26.001Z,22.0754
2023-05-09T10:49:27.096Z,22.0950
2023-05-09T10:50:28.198Z,22.1290
2023-05-09T10:51:29.310Z,22.1414
2023-05-09T10:52:30.395Z,22.1096
2023-05-09T10:53:31.479Z,22.0964
2023-05-09T10:54:32.562Z,22.1199
2023-05-09T10:55:33.655Z,22.1502
2023-05-09T10:56:34.772Z,22.1355
2023-05-09T10:57:35.858Z,22.1301
2023-05-09T10:58:36.932Z,22.1166
2023-05-09T10:59:38.036Z,22.1184
2023-05-09T11:00:39.141Z,22.1369
2023-05-09T11:01:40.301Z,22.1658
2023-05-09T11:02:41.463Z,22.1761
2023-05-09T11:03:42.500Z,22.1877
2023-05-09T11:04:43.516Z,22.2107
2023-05-09T11:05:44.583Z,22.1925
2023-05-09T11:06:45.706Z,22.1800
2023-05-09T11:07:46.786Z,22.1858
2023-05-09T11:08:47.878Z,22.2098
2023-05-09T11:09:48.968Z,22.2327
2023-05-09T11:10:50.055Z,22.2259
2023-05-09T11:11:51.168Z,22.2423
2023-05-09T11:12:52.248Z,22.2734
2023-05-09T11:13:53.340Z,22.2826
2023-05-09T11:14:54.433Z,22.2812
2023-05-09T11:15:55.578Z,22.2809
2023-05-09T11:16:56.613Z,22.2857
2023-05-09T11:17:57.840Z,22.2805
2023-05-09T11:18:58.813Z,22.2769
2023-05-09T11:19:59.892Z,22.2687
2023-05-09T11:21:01.007Z,22.2064
2023-05-09T11:22:02.127Z,22.1015
2023-05-09T11:23:03.182Z,22.0359
2023-05-09T11:24:04.300Z,22.0754
2023-05-09T11:25:05.370Z,22.1352
2023-05-09T11:26:06.523Z,22.1710
2023-05-09T11:27:07.594Z,22.1917
2023-05-09T11:28:08.672Z,22.1841
2023-05-09T11:29:09.781Z,22.1676
2023-05-09T11:30:10.876Z,22.1392
2023-05-09T11:31:11.955Z,22.1193
2023-05-09T11:32:13.180Z,22.0542
2023-05-09T11:33:14.228Z,21.9622
2023-05-09T11:34:15.221Z,21.9004
2023-05-09T11:35:16.664Z,21.8785
2023-05-09T11:36:17.440Z,21.9535
2023-05-09T11:37:18.515Z,21.9902
2023-05-09T11:38:19.604Z,22.0109
2023-05-09T11:39:20.704Z,22.0584
2023-05-09T11:40:21.813Z,22.0653
2023-05-09T11:41:22.894Z,22.0632
2023-05-09T11:42:23.977Z,22.1218
2023-05-09T11:43:25.076Z,22.1952
2023-05-09T11:44:26.178Z,22.2458
2023-05-09T11:45:27.271Z,22.2222
2023-05-09T11:46:28.373Z,22.1640
2023-05-09T11:47:29.484Z,22.1161
2023-05-09T11:48:30.618Z,22.1172
2023-05-09T11:49:31.619Z,22.1225
2023-05-09T11:50:32.730Z,22.0957
2023-05-09T11:51:33.819Z,22.1598
2023-05-09T11:52:34.906Z,22.2189
2023-05-09T11:53:35.991Z,22.2571
2023-05-09T11:54:37.085Z,22.2634
2023-05-09T11:55:38.217Z,22.2244
2023-05-09T11:56:39.288Z,22.1249
2023-05-09T11:57:40.379Z,22.0695
2023-05-09T11:58:41.457Z,22.0698
2023-05-09T11:59:42.542Z,22.0783
2023-05-09T12:00:43.650Z,22.1178
2023-05-09T12:01:44.731Z,22.1383
2023-05-09T12:02:46.035Z,22.1343
2023-05-09T12:03:47.068Z,22.1442
2023-05-09T12:04:48.028Z,22.1361
2023-05-09T12:05:49.170Z,22.1117
2023-05-09T12:06:50.200Z,22.1309
2023-05-09T12:07:51.346Z,22.1511
2023-05-09T12:08:52.402Z,22.1653
2023-05-09T12:09:53.511Z,22.1879
2023-05-09T12:10:54.602Z,22.1305
2023-05-09T12:11:55.684Z,22.1672
2023-05-09T12:12:56.797Z,22.2213
2023-05-09T12:13:57.908Z,22.2596
2023-05-09T12:14:59.006Z,22.1812
2023-05-09T12:16:00.163Z,22.1588
2023-05-09T12:17:01.168Z,22.1944
2023-05-09T12:18:02.303Z,22.2176
2023-05-09T12:19:03.418Z,22.2449
2023-05-09T12:20:04.472Z,22.2512